createdAt,value
2022-09-11T00:00:15.026Z,98572.20
2022-09-11T00:01:04.290Z,98570.90
2022-09-11T00:01:37.005Z,98572.46
2022-09-11T00:02:08.917Z,98573.57
2022-09-11T00:02:40.846Z,98572.30
2022-09-11T00:03:12.627Z,98571.83
2022-09-11T00:03:46.807Z,98574.30
2022-09-11T00:04:19.156Z,98569.55
2022-09-11T00:04:50.975Z,98568.70
2022-09-11T00:05:22.884Z,98565.15
2022-09-11T00:05:54.724Z,98566.70
2022-09-11T00:06:30.197Z,98565.23
2022-09-11T00:07:02.503Z,98566.30
2022-09-11T00:07:34.371Z,98566.48
2022-09-11T00:08:07.990Z,98566.39
2022-09-11T00:08:41.250Z,98565.16
2022-09-11T00:09:13.772Z,98563.55
2022-09-11T00:09:45.796Z,98560.36
2022-09-11T00:10:18.141Z,98563.29
2022-09-11T00:10:49.983Z,98565.95
2022-09-11T00:11:22.201Z,98565.03
2022-09-11T00:11:53.969Z,98564.16
2022-09-11T00:12:26.130Z,98563.86
2022-09-11T00:12:58.215Z,98563.67
2022-09-11T00:13:30.959Z,98564.39
2022-09-11T00:14:02.922Z,98563.65
2022-09-11T00:14:35.570Z,98561.20
2022-09-11T00:15:07.769Z,98563.73
2022-09-11T00:15:44.486Z,98561.79
2022-09-11T00:16:19.843Z,98557.17
2022-09-11T00:16:51.817Z,98561.27
2022-09-11T00:17:23.610Z,98560.20
2022-09-11T00:17:56.536Z,98557.35
2022-09-11T00:18:28.943Z,98559.98
2022-09-11T00:19:04.308Z,98558.81
2022-09-11T00:19:36.096Z,98559.27
2022-09-11T00:20:08.504Z,98557.66
2022-09-11T00:20:51.952Z,98561.20
2022-09-11T00:21:25.348Z,98556.92
2022-09-11T00:21:57.200Z,98556.27
2022-09-11T00:22:29.065Z,98553.04
2022-09-11T00:23:04.708Z,98552.00
2022-09-11T00:23:36.470Z,98550.59
2022-09-11T00:24:11.730Z,98548.52
2022-09-11T00:24:43.562Z,98549.05
2022-09-11T00:25:15.524Z,98547.48
2022-09-11T00:25:48.644Z,98546.10
2022-09-11T00:26:21.525Z,98544.27
2022-09-11T00:26:53.324Z,98541.66
2022-09-11T00:27:25.695Z,98544.35
2022-09-11T00:27:57.562Z,98542.03
2022-09-11T00:28:30.978Z,98537.60
2022-09-11T00:29:03.912Z,98535.98
2022-09-11T00:29:35.843Z,98539.67
2022-09-11T00:30:08.667Z,98540.90
2022-09-11T00:30:40.535Z,98538.73
2022-09-11T00:31:16.973Z,98536.45
2022-09-11T00:31:48.926Z,98537.23
2022-09-11T00:32:20.752Z,98538.70
2022-09-11T00:32:52.906Z,98536.77
2022-09-11T00:33:24.887Z,98533.89
2022-09-11T00:33:57.450Z,98535.36
2022-09-11T00:34:29.295Z,98537.03
2022-09-11T00:35:01.064Z,98536.95
2022-09-11T00:35:32.809Z,98533.73
2022-09-11T00:36:08.041Z,98537.23
2022-09-11T00:36:41.180Z,98537.12
2022-09-11T00:37:13.028Z,98535.95
2022-09-11T00:37:44.858Z,98534.77
2022-09-11T00:38:17.438Z,98536.45
2022-09-11T00:38:50.397Z,98537.35
2022-09-11T00:39:22.257Z,98534.05
2022-09-11T00:39:54.228Z,98535.42
2022-09-11T00:40:26.041Z,98534.42
2022-09-11T00:40:59.991Z,98534.30
2022-09-11T00:41:35.823Z,98531.49
2022-09-11T00:42:09.741Z,98531.81
2022-09-11T00:42:42.100Z,98528.48
2022-09-11T00:43:16.134Z,98529.63
2022-09-11T00:44:28.003Z,98530.77
2022-09-11T00:45:03.654Z,98531.91
2022-09-11T00:45:35.612Z,98531.17
2022-09-11T00:46:08.352Z,98530.45
2022-09-11T00:46:47.210Z,98532.30
2022-09-11T00:47:19.458Z,98531.23
2022-09-11T00:47:53.745Z,98532.30
2022-09-11T00:48:30.379Z,98532.10
2022-09-11T00:49:12.194Z,98531.77
2022-09-11T00:49:54.015Z,98531.90
2022-09-11T00:50:29.286Z,98530.49
2022-09-11T00:51:06.044Z,98533.38
2022-09-11T00:51:40.643Z,98530.73
2022-09-11T00:52:20.734Z,98532.57
2022-09-11T00:53:05.030Z,98534.67
2022-09-11T00:53:38.289Z,98530.90
2022-09-11T00:54:13.087Z,98533.38
2022-09-11T00:54:50.005Z,98527.86
2022-09-11T00:55:26.778Z,98530.02
2022-09-11T00:56:03.051Z,98528.89
2022-09-11T00:56:37.608Z,98528.93
2022-09-11T00:57:10.240Z,98529.83
2022-09-11T00:57:46.848Z,98527.64
2022-09-11T00:58:24.552Z,98529.70
2022-09-11T00:58:58.477Z,98531.09
2022-09-11T00:59:32.685Z,98529.27
2022-09-11T01:00:07.472Z,98528.85
2022-09-11T01:00:44.063Z,98528.88
2022-09-11T01:01:16.266Z,98529.83
2022-09-11T01:01:48.244Z,98530.48
2022-09-11T01:02:26.793Z,98531.03
2022-09-11T01:02:59.751Z,98531.77
2022-09-11T01:03:31.975Z,98528.27
2022-09-11T01:04:07.358Z,98527.57
2022-09-11T01:04:39.650Z,98528.06
2022-09-11T01:05:12.369Z,98526.27
2022-09-11T01:05:44.747Z,98527.16
2022-09-11T01:06:16.937Z,98527.29
2022-09-11T01:06:53.320Z,98527.17
2022-09-11T01:07:26.679Z,98524.73
2022-09-11T01:07:58.589Z,98527.04
2022-09-11T01:08:30.458Z,98526.81
2022-09-11T01:09:02.402Z,98526.81
2022-09-11T01:09:34.122Z,98522.15
2022-09-11T01:10:07.824Z,98527.39
2022-09-11T01:11:21.579Z,98525.43
2022-09-11T01:12:03.388Z,98527.77
2022-09-11T01:13:00.963Z,98524.11
2022-09-11T01:14:23.708Z,98527.81
2022-09-11T01:15:02.184Z,98521.20
2022-09-11T01:15:39.850Z,98524.46
2022-09-11T01:16:40.189Z,98520.55
2022-09-11T01:17:53.710Z,98521.05
2022-09-11T01:18:33.419Z,98519.59
2022-09-11T01:19:36.813Z,98519.25
2022-09-11T01:20:34.873Z,98519.54
2022-09-11T01:21:51.711Z,98517.52
2022-09-11T01:22:51.258Z,98522.15
2022-09-11T01:23:31.788Z,98521.28
2022-09-11T01:24:21.951Z,98519.36
2022-09-11T01:25:21.242Z,98520.99
2022-09-11T01:26:35.213Z,98518.58
2022-09-11T01:27:16.184Z,98523.14
2022-09-11T01:27:51.428Z,98518.95
2022-09-11T01:28:35.479Z,98521.29
2022-09-11T01:29:32.228Z,98520.31
2022-09-11T01:30:12.535Z,98519.84
2022-09-11T01:30:54.449Z,98519.67
2022-09-11T01:31:49.921Z,98520.98
2022-09-11T01:32:44.769Z,98521.92
2022-09-11T01:33:35.353Z,98519.77
2022-09-11T01:34:20.218Z,98521.08
2022-09-11T01:35:11.569Z,98519.33
2022-09-11T01:36:18.514Z,98518.11
2022-09-11T01:36:55.089Z,98518.85
2022-09-11T01:37:47.279Z,98517.77
2022-09-11T01:38:31.239Z,98520.70
2022-09-11T01:39:04.246Z,98521.30
2022-09-11T01:39:42.906Z,98518.21
2022-09-11T01:40:41.336Z,98519.34
2022-09-11T01:41:23.208Z,98513.93
2022-09-11T01:42:02.931Z,98516.64
2022-09-11T01:42:39.154Z,98516.85
2022-09-11T01:43:21.821Z,98513.92
2022-09-11T01:44:02.249Z,98514.61
2022-09-11T01:44:42.745Z,98513.19
2022-09-11T01:45:16.636Z,98514.93
2022-09-11T01:45:51.851Z,98515.09
2022-09-11T01:46:27.747Z,98512.36
2022-09-11T01:47:03.765Z,98512.04
2022-09-11T01:47:37.465Z,98510.71
2022-09-11T01:48:14.557Z,98512.77
2022-09-11T01:48:52.480Z,98511.73
2022-09-11T01:49:47.699Z,98511.04
2022-09-11T01:50:22.466Z,98512.69
2022-09-11T01:50:56.527Z,98509.17
2022-09-11T01:51:31.968Z,98508.19
2022-09-11T01:52:09.096Z,98511.32
2022-09-11T01:53:00.440Z,98513.95
2022-09-11T01:53:38.561Z,98509.48
2022-09-11T01:54:17.813Z,98512.85
2022-09-11T01:54:55.769Z,98513.30
2022-09-11T01:55:34.282Z,98513.50
2022-09-11T01:56:15.347Z,98514.40
2022-09-11T01:56:52.905Z,98516.05
2022-09-11T01:57:34.764Z,98515.20
2022-09-11T01:58:11.003Z,98516.51
2022-09-11T01:58:47.396Z,98519.75
2022-09-11T01:59:27.393Z,98518.82
2022-09-11T02:00:01.903Z,98518.68
2022-09-11T02:00:35.748Z,98515.55
2022-09-11T02:01:31.703Z,98516.52
2022-09-11T02:02:09.296Z,98515.08
2022-09-11T02:02:46.826Z,98519.27
2022-09-11T02:03:29.980Z,98517.43
2022-09-11T02:04:10.209Z,98516.61
2022-09-11T02:04:52.611Z,98516.89
2022-09-11T02:05:30.823Z,98518.06
2022-09-11T02:06:26.692Z,98518.75
2022-09-11T02:07:05.602Z,98516.73
2022-09-11T02:07:47.914Z,98515.55
2022-09-11T02:08:27.923Z,98516.94
2022-09-11T02:09:05.847Z,98512.95
2022-09-11T02:09:47.050Z,98511.95
2022-09-11T02:10:29.766Z,98512.40
2022-09-11T02:11:06.649Z,98515.09
2022-09-11T02:11:41.866Z,98515.30
2022-09-11T02:12:19.919Z,98512.52
2022-09-11T02:13:11.478Z,98512.11
2022-09-11T02:13:52.017Z,98509.46
2022-09-11T02:14:30.519Z,98513.16
2022-09-11T02:15:02.541Z,98512.27
2022-09-11T02:15:41.905Z,98513.00
2022-09-11T02:16:26.683Z,98511.49
2022-09-11T02:17:14.824Z,98514.38
2022-09-11T02:18:09.121Z,98511.95
2022-09-11T02:18:49.443Z,98513.91
2022-09-11T02:19:27.445Z,98515.11
2022-09-11T02:20:00.311Z,98513.37
2022-09-11T02:20:32.062Z,98514.45
2022-09-11T02:21:03.974Z,98515.22
2022-09-11T02:21:36.989Z,98516.79
2022-09-11T02:22:09.368Z,98517.45
2022-09-11T02:22:41.838Z,98517.27
2022-09-11T02:23:15.211Z,98516.94
2022-09-11T02:23:46.994Z,98515.31
2022-09-11T02:24:22.301Z,98519.19
2022-09-11T02:24:55.202Z,98518.31
2022-09-11T02:25:27.195Z,98517.53
2022-09-11T02:26:00.221Z,98518.30
2022-09-11T02:26:39.384Z,98515.14
2022-09-11T02:27:16.543Z,98516.23
2022-09-11T02:27:48.454Z,98518.96
2022-09-11T02:28:20.142Z,98515.83
2022-09-11T02:28:53.492Z,98518.11
2022-09-11T02:29:26.299Z,98516.12
2022-09-11T02:29:59.203Z,98518.09
2022-09-11T02:30:31.813Z,98516.13
2022-09-11T02:31:03.897Z,98515.59
2022-09-11T02:31:36.204Z,98516.71
2022-09-11T02:32:10.778Z,98515.71
2022-09-11T02:32:43.837Z,98516.23
2022-09-11T02:33:29.817Z,98515.64
2022-09-11T02:34:01.670Z,98513.16
2022-09-11T02:34:36.387Z,98516.00
2022-09-11T02:35:09.750Z,98510.56
2022-09-11T02:35:50.792Z,98508.36
2022-09-11T02:36:29.381Z,98509.88
2022-09-11T02:37:19.747Z,98508.33
2022-09-11T02:38:17.781Z,98513.63
2022-09-11T02:39:07.775Z,98510.03
2022-09-11T02:39:55.578Z,98512.40
2022-09-11T02:40:46.177Z,98509.42
2022-09-11T02:41:43.681Z,98509.78
2022-09-11T02:42:30.570Z,98509.14
2022-09-11T02:43:53.298Z,98513.48
2022-09-11T02:44:40.870Z,98511.95
2022-09-11T02:45:41.632Z,98515.81
2022-09-11T02:46:13.641Z,98510.42
2022-09-11T02:46:59.980Z,98513.91
2022-09-11T02:47:52.839Z,98511.48
2022-09-11T02:48:46.158Z,98512.54
2022-09-11T02:49:27.789Z,98513.64
2022-09-11T02:50:13.656Z,98515.87
2022-09-11T02:50:58.466Z,98512.41
2022-09-11T02:51:58.851Z,98508.02
2022-09-11T02:52:30.515Z,98510.70
2022-09-11T02:53:24.656Z,98512.17
2022-09-11T02:54:05.222Z,98509.85
2022-09-11T02:54:47.144Z,98508.02
2022-09-11T02:55:30.103Z,98508.27
2022-09-11T02:56:23.413Z,98509.05
2022-09-11T02:57:21.035Z,98503.23
2022-09-11T02:58:27.459Z,98500.98
2022-09-11T02:59:05.562Z,98497.90
2022-09-11T02:59:43.417Z,98497.21
2022-09-11T03:00:15.890Z,98499.38
2022-09-11T03:00:47.848Z,98498.04
2022-09-11T03:01:19.698Z,98499.61
2022-09-11T03:01:54.691Z,98496.20
2022-09-11T03:02:29.496Z,98495.21
2022-09-11T03:03:01.394Z,98497.50
2022-09-11T03:03:46.025Z,98496.98
2022-09-11T03:04:18.584Z,98497.81
2022-09-11T03:04:50.435Z,98496.81
2022-09-11T03:05:23.040Z,98495.30
2022-09-11T03:05:55.053Z,98498.95
2022-09-11T03:06:27.659Z,98503.29
2022-09-11T03:06:59.742Z,98499.55
2022-09-11T03:07:32.910Z,98496.86
2022-09-11T03:08:04.850Z,98501.50
2022-09-11T03:08:36.847Z,98499.56
2022-09-11T03:09:09.767Z,98497.48
2022-09-11T03:09:41.773Z,98498.77
2022-09-11T03:10:13.636Z,98497.56
2022-09-11T03:10:49.527Z,98493.68
2022-09-11T03:11:21.354Z,98496.29
2022-09-11T03:11:54.628Z,98494.60
2022-09-11T03:12:29.457Z,98493.02
2022-09-11T03:13:01.283Z,98492.94
2022-09-11T03:13:33.125Z,98494.68
2022-09-11T03:14:04.933Z,98492.03
2022-09-11T03:14:37.782Z,98494.63
2022-09-11T03:15:10.802Z,98494.06
2022-09-11T03:15:45.768Z,98494.91
2022-09-11T03:16:17.523Z,98495.98
2022-09-11T03:16:49.734Z,98493.88
2022-09-11T03:17:21.506Z,98498.83
2022-09-11T03:17:53.357Z,98496.51
2022-09-11T03:18:25.151Z,98497.16
2022-09-11T03:18:56.854Z,98495.01
2022-09-11T03:19:28.660Z,98499.23
2022-09-11T03:20:00.457Z,98499.14
2022-09-11T03:20:33.711Z,98501.55
2022-09-11T03:21:05.995Z,98505.08
2022-09-11T03:21:38.523Z,98502.41
2022-09-11T03:22:10.298Z,98502.36
2022-09-11T03:22:42.007Z,98506.90
2022-09-11T03:23:13.931Z,98504.90
2022-09-11T03:23:45.764Z,98508.20
2022-09-11T03:24:17.506Z,98506.04
2022-09-11T03:24:49.143Z,98506.11
2022-09-11T03:25:23.177Z,98506.73
2022-09-11T03:25:55.652Z,98507.48
2022-09-11T03:26:28.612Z,98509.63
2022-09-11T03:27:00.439Z,98508.33
2022-09-11T03:27:32.618Z,98508.92
2022-09-11T03:28:04.249Z,98507.14
2022-09-11T03:28:36.240Z,98507.25
2022-09-11T03:29:08.087Z,98509.38
2022-09-11T03:29:40.454Z,98510.23
2022-09-11T03:30:12.553Z,98506.42
2022-09-11T03:30:44.370Z,98508.71
2022-09-11T03:31:17.010Z,98505.62
2022-09-11T03:31:48.847Z,98511.44
2022-09-11T03:32:22.532Z,98510.09
2022-09-11T03:32:54.467Z,98510.61
2022-09-11T03:33:27.516Z,98510.73
2022-09-11T03:33:59.319Z,98513.55
2022-09-11T03:34:31.387Z,98509.20
2022-09-11T03:35:03.288Z,98514.64
2022-09-11T03:35:35.507Z,98512.27
2022-09-11T03:36:08.065Z,98511.02
2022-09-11T03:36:39.878Z,98512.77
2022-09-11T03:37:11.715Z,98509.83
2022-09-11T03:37:43.809Z,98511.00
2022-09-11T03:38:15.571Z,98512.38
2022-09-11T03:38:47.722Z,98513.55
2022-09-11T03:39:19.466Z,98511.16
2022-09-11T03:39:54.184Z,98514.05
2022-09-11T03:40:26.293Z,98518.03
2022-09-11T03:40:58.268Z,98516.84
2022-09-11T03:41:30.340Z,98516.59
2022-09-11T03:42:02.467Z,98516.30
2022-09-11T03:42:34.260Z,98518.36
2022-09-11T03:43:06.084Z,98520.27
2022-09-11T03:43:37.782Z,98519.87
2022-09-11T03:44:12.413Z,98522.59
2022-09-11T03:44:45.150Z,98521.56
2022-09-11T03:45:17.258Z,98517.91
2022-09-11T03:45:51.410Z,98521.77
2022-09-11T03:46:23.938Z,98520.10
2022-09-11T03:46:56.963Z,98523.19
2022-09-11T03:47:28.788Z,98524.67
2022-09-11T03:48:01.811Z,98521.92
2022-09-11T03:48:33.874Z,98522.41
2022-09-11T03:49:05.874Z,98522.40
2022-09-11T03:49:37.744Z,98524.06
2022-09-11T03:50:11.022Z,98524.98
2022-09-11T03:50:44.956Z,98520.81
2022-09-11T03:51:16.865Z,98525.66
2022-09-11T03:51:48.686Z,98525.37
2022-09-11T03:52:22.697Z,98524.27
2022-09-11T03:52:54.602Z,98525.04
2022-09-11T03:53:26.678Z,98524.96
2022-09-11T03:54:00.552Z,98520.89
2022-09-11T03:54:32.431Z,98527.23
2022-09-11T03:55:05.579Z,98521.79
2022-09-11T03:55:38.077Z,98523.41
2022-09-11T03:56:10.892Z,98523.72
2022-09-11T03:56:42.734Z,98524.45
2022-09-11T03:57:14.667Z,98522.25
2022-09-11T03:57:46.382Z,98522.44
2022-09-11T03:58:21.200Z,98527.58
2022-09-11T03:58:58.694Z,98525.95
2022-09-11T03:59:30.710Z,98526.59
2022-09-11T04:00:04.169Z,98527.59
2022-09-11T04:00:36.010Z,98528.64
2022-09-11T04:01:12.171Z,98526.48
2022-09-11T04:01:44.161Z,98528.63
2022-09-11T04:02:16.032Z,98530.59
2022-09-11T04:02:48.112Z,98529.70
2022-09-11T04:03:19.916Z,98530.74
2022-09-11T04:03:52.061Z,98528.63
2022-09-11T04:04:23.867Z,98525.41
2022-09-11T04:04:55.643Z,98530.73
2022-09-11T04:05:27.772Z,98530.64
2022-09-11T04:06:02.053Z,98530.65
2022-09-11T04:06:34.357Z,98530.31
2022-09-11T04:07:06.270Z,98531.17
2022-09-11T04:07:38.063Z,98531.02
2022-09-11T04:08:13.684Z,98530.27
2022-09-11T04:08:45.900Z,98530.52
2022-09-11T04:09:18.135Z,98527.95
2022-09-11T04:09:50.019Z,98532.13
2022-09-11T04:10:21.949Z,98529.81
2022-09-11T04:10:58.679Z,98529.61
2022-09-11T04:11:35.467Z,98531.31
2022-09-11T04:12:10.867Z,98529.66
2022-09-11T04:12:43.737Z,98529.90
2022-09-11T04:13:16.346Z,98534.01
2022-09-11T04:13:48.296Z,98530.77
2022-09-11T04:14:22.201Z,98527.71
2022-09-11T04:14:54.155Z,98530.75
2022-09-11T04:15:25.937Z,98529.85
2022-09-11T04:16:00.083Z,98530.77
2022-09-11T04:16:33.021Z,98530.98
2022-09-11T04:17:07.778Z,98528.71
2022-09-11T04:17:39.512Z,98526.77
2022-09-11T04:18:11.494Z,98527.86
2022-09-11T04:18:45.559Z,98526.85
2022-09-11T04:19:18.467Z,98523.39
2022-09-11T04:19:50.472Z,98530.02
2022-09-11T04:20:22.451Z,98527.20
2022-09-11T04:20:54.313Z,98524.72
2022-09-11T04:21:27.378Z,98527.44
2022-09-11T04:21:59.121Z,98527.60
2022-09-11T04:22:31.517Z,98527.81
2022-09-11T04:23:03.390Z,98526.06
2022-09-11T04:23:35.802Z,98527.08
2022-09-11T04:24:09.211Z,98525.01
2022-09-11T04:24:40.892Z,98527.92
2022-09-11T04:25:13.777Z,98526.73
2022-09-11T04:25:45.529Z,98528.77
2022-09-11T04:26:21.608Z,98527.91
2022-09-11T04:26:57.356Z,98526.65
2022-09-11T04:27:31.839Z,98527.82
2022-09-11T04:28:04.671Z,98526.15
2022-09-11T04:28:36.408Z,98527.95
2022-09-11T04:29:08.198Z,98529.86
2022-09-11T04:29:40.117Z,98526.35
2022-09-11T04:30:12.676Z,98529.94
2022-09-11T04:30:44.513Z,98529.34
2022-09-11T04:31:20.483Z,98534.72
2022-09-11T04:31:52.637Z,98528.17
2022-09-11T04:32:24.956Z,98531.34
2022-09-11T04:32:56.621Z,98531.18
2022-09-11T04:33:28.527Z,98530.77
2022-09-11T04:34:00.409Z,98532.40
2022-09-11T04:34:32.472Z,98534.70
2022-09-11T04:35:04.623Z,98531.86
2022-09-11T04:35:39.076Z,98532.39
2022-09-11T04:36:13.757Z,98532.78
2022-09-11T04:36:45.514Z,98533.44
2022-09-11T04:37:19.453Z,98534.45
2022-09-11T04:37:51.963Z,98534.89
2022-09-11T04:38:24.254Z,98533.83
2022-09-11T04:38:57.883Z,98534.16
2022-09-11T04:39:30.458Z,98532.20
2022-09-11T04:40:02.608Z,98533.42
2022-09-11T04:40:35.046Z,98530.24
2022-09-11T04:41:08.280Z,98533.44
2022-09-11T04:41:40.356Z,98531.02
2022-09-11T04:42:12.157Z,98534.76
2022-09-11T04:42:43.799Z,98533.95
2022-09-11T04:43:17.474Z,98532.52
2022-09-11T04:43:53.418Z,98534.79
2022-09-11T04:44:25.808Z,98536.66
2022-09-11T04:44:57.689Z,98535.33
2022-09-11T04:45:32.872Z,98533.83
2022-09-11T04:46:07.247Z,98532.97
2022-09-11T04:46:39.446Z,98538.30
2022-09-11T04:47:11.310Z,98532.69
2022-09-11T04:47:43.712Z,98532.13
2022-09-11T04:48:15.575Z,98530.01
2022-09-11T04:48:51.268Z,98532.72
2022-09-11T04:49:23.214Z,98533.98
2022-09-11T04:49:54.987Z,98526.95
2022-09-11T04:50:28.626Z,98527.52
2022-09-11T04:51:04.035Z,98533.46
2022-09-11T04:51:38.013Z,98531.59
2022-09-11T04:52:09.836Z,98531.91
2022-09-11T04:52:41.559Z,98529.48
2022-09-11T04:53:13.368Z,98532.55
2022-09-11T04:53:45.221Z,98528.36
2022-09-11T04:54:21.058Z,98531.09
2022-09-11T04:54:53.866Z,98532.35
2022-09-11T04:55:26.082Z,98530.61
2022-09-11T04:56:06.106Z,98529.14
2022-09-11T04:56:37.865Z,98530.96
2022-09-11T04:57:09.761Z,98528.23
2022-09-11T04:57:41.645Z,98528.84
2022-09-11T04:58:13.472Z,98527.55
2022-09-11T04:58:45.507Z,98528.71
2022-09-11T04:59:21.632Z,98527.34
2022-09-11T04:59:53.796Z,98527.86
2022-09-11T05:00:25.700Z,98531.06
2022-09-11T05:00:57.648Z,98528.98
2022-09-11T05:01:31.059Z,98527.84
2022-09-11T05:02:03.213Z,98526.86
2022-09-11T05:02:35.769Z,98524.56
2022-09-11T05:03:07.492Z,98523.38
2022-09-11T05:03:40.758Z,98526.33
2022-09-11T05:04:13.991Z,98521.77
2022-09-11T05:04:45.612Z,98523.34
2022-09-11T05:05:17.434Z,98519.59
2022-09-11T05:05:49.118Z,98523.95
2022-09-11T05:06:20.892Z,98523.44
2022-09-11T05:06:52.821Z,98522.69
2022-09-11T05:07:25.332Z,98523.57
2022-09-11T05:07:57.220Z,98523.48
2022-09-11T05:08:29.101Z,98519.88
2022-09-11T05:09:04.072Z,98524.58
2022-09-11T05:09:36.087Z,98524.93
2022-09-11T05:10:08.317Z,98525.45
2022-09-11T05:10:41.819Z,98519.08
2022-09-11T05:11:16.488Z,98522.36
2022-09-11T05:11:48.319Z,98521.02
2022-09-11T05:12:21.439Z,98521.27
2022-09-11T05:12:53.418Z,98524.44
2022-09-11T05:13:26.209Z,98526.56
2022-09-11T05:13:58.581Z,98522.13
2022-09-11T05:14:32.399Z,98522.70
2022-09-11T05:15:04.500Z,98525.17
2022-09-11T05:15:36.427Z,98523.83
2022-09-11T05:16:11.176Z,98523.69
2022-09-11T05:16:44.581Z,98521.90
2022-09-11T05:17:16.546Z,98526.08
2022-09-11T05:17:48.440Z,98524.23
2022-09-11T05:18:20.428Z,98526.46
2022-09-11T05:18:52.868Z,98528.48
2022-09-11T05:19:25.240Z,98529.73
2022-09-11T05:19:58.469Z,98527.51
2022-09-11T05:20:30.623Z,98527.47
2022-09-11T05:21:07.836Z,98524.86
2022-09-11T05:21:39.725Z,98528.80
2022-09-11T05:22:11.652Z,98527.58
2022-09-11T05:22:43.771Z,98530.00
2022-09-11T05:23:15.728Z,98527.38
2022-09-11T05:23:49.758Z,98529.33
2022-09-11T05:24:21.597Z,98530.21
2022-09-11T05:24:53.404Z,98527.71
2022-09-11T05:25:25.143Z,98525.45
2022-09-11T05:25:58.720Z,98530.56
2022-09-11T05:26:32.674Z,98529.97
2022-09-11T05:27:06.195Z,98530.91
2022-09-11T05:27:38.209Z,98533.69
2022-09-11T05:28:11.325Z,98532.95
2022-09-11T05:28:43.886Z,98529.41
2022-09-11T05:29:16.196Z,98527.09
2022-09-11T05:29:48.125Z,98532.38
2022-09-11T05:30:20.004Z,98529.94
2022-09-11T05:30:53.354Z,98532.91
2022-09-11T05:31:25.532Z,98530.13
2022-09-11T05:32:01.377Z,98532.69
2022-09-11T05:32:33.290Z,98528.73
2022-09-11T05:33:06.348Z,98529.75
2022-09-11T05:33:39.726Z,98529.55
2022-09-11T05:34:11.598Z,98529.83
2022-09-11T05:34:43.830Z,98529.80
2022-09-11T05:35:16.587Z,98529.35
2022-09-11T05:35:48.496Z,98527.97
2022-09-11T05:36:20.700Z,98528.81
2022-09-11T05:36:52.609Z,98527.53
2022-09-11T05:37:25.035Z,98528.02
2022-09-11T05:37:58.175Z,98527.89
2022-09-11T05:38:30.006Z,98530.89
2022-09-11T05:39:03.509Z,98530.15
2022-09-11T05:39:35.496Z,98532.02
2022-09-11T05:40:07.780Z,98530.42
2022-09-11T05:40:48.956Z,98535.45
2022-09-11T05:41:21.441Z,98532.21
2022-09-11T05:41:55.068Z,98535.95
2022-09-11T05:42:28.287Z,98533.04
2022-09-11T05:43:00.066Z,98534.66
2022-09-11T05:43:34.346Z,98533.41
2022-09-11T05:44:06.341Z,98533.92
2022-09-11T05:44:38.645Z,98533.73
2022-09-11T05:45:10.601Z,98534.89
2022-09-11T05:45:43.896Z,98532.13
2022-09-11T05:46:17.563Z,98533.72
2022-09-11T05:46:49.410Z,98531.50
2022-09-11T05:47:21.308Z,98530.12
2022-09-11T05:47:55.925Z,98531.01
2022-09-11T05:48:29.426Z,98530.04
2022-09-11T05:49:01.575Z,98529.19
2022-09-11T05:49:33.372Z,98527.44
2022-09-11T05:50:05.935Z,98527.02
2022-09-11T05:50:38.249Z,98527.02
2022-09-11T05:51:15.898Z,98524.59
2022-09-11T05:51:47.690Z,98528.19
2022-09-11T05:52:19.623Z,98528.33
2022-09-11T05:52:52.950Z,98527.52
2022-09-11T05:53:26.165Z,98526.52
2022-09-11T05:53:58.221Z,98525.52
2022-09-11T05:54:30.249Z,98525.12
2022-09-11T05:55:02.704Z,98525.41
2022-09-11T05:55:38.174Z,98522.33
2022-09-11T05:56:13.794Z,98524.82
2022-09-11T05:56:45.697Z,98522.58
2022-09-11T05:57:17.775Z,98525.55
2022-09-11T05:57:52.131Z,98523.45
2022-09-11T05:58:24.004Z,98522.73
2022-09-11T05:58:57.414Z,98521.88
2022-09-11T05:59:30.827Z,98522.17
2022-09-11T06:00:04.347Z,98522.21
2022-09-11T06:00:36.452Z,98520.52
2022-09-11T06:01:11.021Z,98520.55
2022-09-11T06:01:43.227Z,98520.65
2022-09-11T06:02:15.523Z,98519.88
2022-09-11T06:02:50.520Z,98522.57
2022-09-11T06:03:22.268Z,98519.69
2022-09-11T06:03:54.589Z,98521.48
2022-09-11T06:04:27.680Z,98519.31
2022-09-11T06:04:59.572Z,98518.29
2022-09-11T06:05:31.637Z,98518.86
2022-09-11T06:06:05.681Z,98519.95
2022-09-11T06:06:38.103Z,98519.29
2022-09-11T06:07:10.132Z,98516.88
2022-09-11T06:07:42.036Z,98516.27
2022-09-11T06:08:14.448Z,98515.36
2022-09-11T06:08:47.533Z,98516.67
2022-09-11T06:09:19.454Z,98518.91
2022-09-11T06:09:51.293Z,98517.57
2022-09-11T06:10:23.666Z,98516.49
2022-09-11T06:10:57.758Z,98516.84
2022-09-11T06:11:30.607Z,98514.96
2022-09-11T06:12:02.825Z,98509.86
2022-09-11T06:12:35.135Z,98512.55
2022-09-11T06:13:07.557Z,98513.25
2022-09-11T06:13:41.815Z,98510.16
2022-09-11T06:14:13.818Z,98510.94
2022-09-11T06:14:45.693Z,98510.98
2022-09-11T06:15:42.875Z,98510.45
2022-09-11T06:16:18.270Z,98510.86
2022-09-11T06:16:50.509Z,98509.79
2022-09-11T06:17:22.865Z,98510.06
2022-09-11T06:17:55.531Z,98506.11
2022-09-11T06:18:27.380Z,98507.01
2022-09-11T06:18:59.284Z,98506.39
2022-09-11T06:19:31.044Z,98508.95
2022-09-11T06:20:03.314Z,98507.11
2022-09-11T06:20:35.123Z,98509.63
2022-09-11T06:21:11.310Z,98506.66
2022-09-11T06:21:44.212Z,98510.27
2022-09-11T06:22:16.152Z,98504.56
2022-09-11T06:22:48.021Z,98507.09
2022-09-11T06:23:19.865Z,98506.92
2022-09-11T06:23:53.125Z,98505.79
2022-09-11T06:24:25.025Z,98507.73
2022-09-11T06:24:57.606Z,98507.46
2022-09-11T06:25:29.817Z,98506.08
2022-09-11T06:26:07.391Z,98503.09
2022-09-11T06:26:39.844Z,98502.23
2022-09-11T06:27:11.820Z,98504.06
2022-09-11T06:27:43.620Z,98503.89
2022-09-11T06:28:15.617Z,98505.89
2022-09-11T06:28:47.494Z,98509.46
2022-09-11T06:29:19.401Z,98506.73
2022-09-11T06:29:51.335Z,98507.21
2022-09-11T06:30:23.469Z,98504.27
2022-09-11T06:30:55.711Z,98504.30
2022-09-11T06:31:27.583Z,98501.08
2022-09-11T06:31:59.537Z,98505.23
2022-09-11T06:32:31.418Z,98501.98
2022-09-11T06:33:03.205Z,98501.04
2022-09-11T06:33:37.710Z,98506.77
2022-09-11T06:34:09.965Z,98506.14
2022-09-11T06:34:41.805Z,98508.09
2022-09-11T06:35:13.646Z,98507.00
2022-09-11T06:36:05.338Z,98506.10
2022-09-11T06:36:37.442Z,98507.69
2022-09-11T06:37:09.256Z,98507.52
2022-09-11T06:37:41.117Z,98506.48
2022-09-11T06:38:13.158Z,98508.66
2022-09-11T06:38:46.154Z,98506.09
2022-09-11T06:39:20.047Z,98507.66
2022-09-11T06:39:52.036Z,98508.05
2022-09-11T06:40:24.718Z,98509.33
2022-09-11T06:40:56.994Z,98507.71
2022-09-11T06:41:29.139Z,98506.95
2022-09-11T06:42:02.497Z,98504.30
2022-09-11T06:42:34.653Z,98506.66
2022-09-11T06:43:06.546Z,98502.68
2022-09-11T06:43:38.440Z,98505.52
2022-09-11T06:44:10.212Z,98504.44
2022-09-11T06:44:42.169Z,98505.30
2022-09-11T06:45:14.123Z,98505.13
2022-09-11T06:45:49.248Z,98506.23
2022-09-11T06:46:23.823Z,98504.45
2022-09-11T06:46:57.062Z,98506.89
2022-09-11T06:47:28.991Z,98503.52
2022-09-11T06:48:00.944Z,98504.88
2022-09-11T06:48:33.130Z,98505.79
2022-09-11T06:49:06.069Z,98505.04
2022-09-11T06:49:37.880Z,98508.48
2022-09-11T06:50:11.438Z,98508.66
2022-09-11T06:50:43.295Z,98506.33
2022-09-11T06:51:17.645Z,98505.75
2022-09-11T06:51:49.669Z,98503.42
2022-09-11T06:52:21.419Z,98500.98
2022-09-11T06:52:53.903Z,98502.13
2022-09-11T06:53:25.738Z,98504.90
2022-09-11T06:54:01.884Z,98508.23
2022-09-11T06:54:33.996Z,98504.63
2022-09-11T06:55:07.254Z,98508.38